Time;durP1;ratioP1;P1;durP2;ratioP2;P2;SDS_P1;SDS_P2;PMS_P1;PMS_P2;Temp;Humidity;BMP_temperature;BMP_pressure;BME280_temperature;BME280_humidity;BME280_pressure;Samples;Min_cycle;Max_cycle;Signal;HPM_P1;HPM_P2
2021/07/27 00:01:12;;;;;;;17.93;6.20;;;17.40;99.90;;;;;;5050130;28;20929;-58
2021/07/27 00:03:39;;;;;;;21.35;5.90;;;17.50;99.90;;;;;;5050486;28;20435;-57
2021/07/27 00:06:09;;;;;;;22.83;5.85;;;17.50;99.90;;;;;;5051275;28;20378;-57
2021/07/27 00:08:36;;;;;;;19.10;6.38;;;17.50;99.90;;;;;;5050737;28;20409;-57
2021/07/27 00:11:11;;;;;;;26.47;6.70;;;17.50;99.90;;;;;;5050707;28;20416;-58
2021/07/27 00:13:39;;;;;;;24.48;7.28;;;17.20;99.90;;;;;;5050582;28;20586;-58
2021/07/27 00:16:05;;;;;;;16.13;5.50;;;17.10;99.90;;;;;;5051397;28;20412;-57
2021/07/27 00:18:31;;;;;;;16.85;6.00;;;17.10;99.90;;;;;;5050260;28;20958;-57
2021/07/27 00:21:01;;;;;;;13.25;5.80;;;17.10;99.90;;;;;;5051125;28;20393;-57
2021/07/27 00:23:26;;;;;;;17.60;6.50;;;17.20;99.90;;;;;;5050037;28;20492;-57
2021/07/27 00:25:52;;;;;;;21.38;6.68;;;17.20;99.90;;;;;;5050731;28;20457;-58
2021/07/27 00:28:18;;;;;;;20.93;6.17;;;17.10;99.90;;;;;;5050446;28;20400;-57
2021/07/27 00:30:43;;;;;;;26.13;6.00;;;17.00;99.90;;;;;;5050643;28;20752;-57
2021/07/27 00:33:09;;;;;;;19.15;5.90;;;16.80;99.90;;;;;;5050957;28;20409;-58
2021/07/27 00:35:35;;;;;;;24.10;7.30;;;16.70;99.90;;;;;;5049765;28;20472;-57
2021/07/27 00:38:10;;;;;;;24.20;6.53;;;16.60;99.90;;;;;;5049577;28;20378;-57
2021/07/27 00:40:40;;;;;;;22.15;5.97;;;16.70;99.90;;;;;;5050164;28;20790;-57
2021/07/27 00:43:17;;;;;;;19.15;6.30;;;16.60;99.90;;;;;;5050414;28;20386;-56
2021/07/27 00:45:43;;;;;;;27.65;6.45;;;16.60;99.90;;;;;;5049778;28;20393;-57
2021/07/27 00:48:09;;;;;;;20.23;6.40;;;16.70;99.90;;;;;;5049473;28;20405;-57
2021/07/27 00:50:36;;;;;;;18.17;6.70;;;16.60;99.90;;;;;;5049587;28;20484;-56
2021/07/27 00:53:03;;;;;;;23.95;5.25;;;16.70;99.90;;;;;;5048701;28;20764;-56
2021/07/27 00:55:30;;;;;;;15.50;5.80;;;16.60;99.90;;;;;;5049749;28;20378;-56
2021/07/27 00:57:56;;;;;;;12.05;5.40;;;16.70;99.90;;;;;;5050749;28;20512;-57
2021/07/27 01:00:23;;;;;;;10.80;5.00;;;16.70;99.90;;;;;;5049221;28;20412;-57
2021/07/27 01:02:49;;;;;;;11.45;5.72;;;16.70;99.90;;;;;;5050130;28;20382;-57
2021/07/27 01:05:16;;;;;;;16.10;5.45;;;16.80;99.90;;;;;;5050416;28;20886;-57
2021/07/27 01:07:42;;;;;;;11.23;5.30;;;16.80;99.90;;;;;;5049252;28;20472;-57
2021/07/27 01:10:10;;;;;;;8.30;4.80;;;16.90;99.90;;;;;;5050134;28;20381;-56
2021/07/27 01:12:37;;;;;;;13.00;5.80;;;16.90;99.90;;;;;;5049585;28;20382;-56
2021/07/27 01:15:03;;;;;;;11.65;5.43;;;16.90;99.90;;;;;;5049853;28;20421;-57
2021/07/27 01:17:29;;;;;;;18.40;6.38;;;16.80;99.90;;;;;;5049002;28;21107;-56
2021/07/27 01:20:12;;;;;;;16.33;5.85;;;16.70;99.90;;;;;;5050305;28;20373;-56
2021/07/27 01:37:31;;;;;;;21.80;6.60;;;16.60;99.90;;;;;;5049258;28;20962;-56
2021/07/27 01:42:12;;;;;;;15.48;6.65;;;16.40;99.90;;;;;;5048555;28;20436;-57
2021/07/27 01:44:44;;;;;;;15.10;5.95;;;16.50;99.90;;;;;;5048911;28;20394;-56
2021/07/27 01:47:11;;;;;;;12.38;6.53;;;16.50;99.90;;;;;;5049815;28;20450;-56
2021/07/27 01:49:37;;;;;;;14.93;5.65;;;16.50;99.90;;;;;;5048721;28;20389;-56
2021/07/27 01:52:03;;;;;;;13.30;6.00;;;16.50;99.90;;;;;;5048274;28;20516;-57
2021/07/27 01:54:40;;;;;;;11.52;5.45;;;16.50;99.90;;;;;;5048287;28;20453;-56
2021/07/27 01:57:10;;;;;;;13.45;6.00;;;16.50;99.90;;;;;;5049498;28;20520;-56
2021/07/27 01:59:40;;;;;;;13.93;6.20;;;16.60;99.90;;;;;;5048789;28;20402;-56
2021/07/27 02:02:07;;;;;;;10.68;5.85;;;16.60;99.90;;;;;;5049523;28;20455;-56
2021/07/27 02:04:34;;;;;;;9.90;5.78;;;16.60;99.90;;;;;;5048753;28;20863;-56
2021/07/27 02:06:59;;;;;;;16.40;6.43;;;16.60;99.90;;;;;;5049514;28;20386;-56
2021/07/27 02:09:38;;;;;;;13.37;5.40;;;16.70;99.90;;;;;;5048700;28;20950;-56
2021/07/27 02:12:04;;;;;;;14.80;5.78;;;16.80;99.90;;;;;;5049558;28;20716;-56
2021/07/27 02:17:14;;;;;;;12.53;5.60;;;16.80;99.90;;;;;;5049504;28;20377;-57
2021/07/27 02:19:40;;;;;;;11.68;6.00;;;16.70;99.90;;;;;;5048557;28;20378;-56
2021/07/27 02:22:06;;;;;;;15.02;6.63;;;16.70;99.90;;;;;;5048895;28;20386;-56
2021/07/27 02:24:31;;;;;;;15.87;6.70;;;16.50;99.90;;;;;;5048016;28;20407;-56
2021/07/27 02:26:57;;;;;;;13.30;6.77;;;16.40;99.90;;;;;;5049238;28;20381;-56
2021/07/27 02:29:22;;;;;;;16.67;6.82;;;16.40;99.90;;;;;;5048740;28;20469;-56
2021/07/27 02:31:48;;;;;;;13.00;6.63;;;16.30;99.90;;;;;;5048632;28;20381;-56
2021/07/27 02:34:14;;;;;;;20.73;8.00;;;16.40;99.90;;;;;;5048966;28;20483;-56
2021/07/27 02:36:39;;;;;;;14.57;6.87;;;16.40;99.90;;;;;;5048317;28;20391;-56
2021/07/27 02:39:06;;;;;;;18.42;6.95;;;16.40;99.90;;;;;;5048894;28;20385;-57
2021/07/27 02:41:33;;;;;;;20.80;8.70;;;16.40;99.90;;;;;;5047991;28;20381;-56
2021/07/27 02:43:59;;;;;;;16.48;7.03;;;15.50;99.90;;;;;;5049169;28;20443;-58
2021/07/27 02:46:25;;;;;;;15.98;6.30;;;16.60;99.90;;;;;;5047888;28;20921;-56
2021/07/27 02:48:51;;;;;;;14.73;7.13;;;16.60;99.90;;;;;;5049124;28;20381;-56
2021/07/27 02:51:16;;;;;;;17.83;6.83;;;16.50;99.90;;;;;;5048819;28;20382;-56
2021/07/27 02:53:42;;;;;;;16.20;6.82;;;16.50;99.90;;;;;;5047548;28;20486;-57
2021/07/27 02:56:07;;;;;;;14.13;7.60;;;16.50;99.90;;;;;;5048883;28;20471;-56
2021/07/27 02:58:33;;;;;;;12.93;6.63;;;16.50;99.90;;;;;;5048218;28;20472;-57
2021/07/27 03:01:02;;;;;;;15.63;6.88;;;16.50;99.90;;;;;;5049973;28;20475;-56
2021/07/27 03:03:28;;;;;;;14.50;6.50;;;16.40;99.90;;;;;;5051622;28;20432;-56
2021/07/27 03:05:56;;;;;;;15.70;7.13;;;16.40;99.90;;;;;;5052568;28;20413;-57
2021/07/27 03:08:23;;;;;;;15.13;6.85;;;16.40;99.90;;;;;;5051756;28;20378;-56
2021/07/27 03:10:48;;;;;;;13.20;6.97;;;16.30;99.90;;;;;;5052217;28;20376;-56
2021/07/27 03:13:14;;;;;;;15.93;6.43;;;16.20;99.90;;;;;;5052135;28;20410;-56
2021/07/27 03:15:40;;;;;;;15.33;7.70;;;16.30;99.90;;;;;;5051601;28;20401;-56
2021/07/27 03:18:06;;;;;;;14.02;7.10;;;16.30;99.90;;;;;;5051958;28;20381;-56
2021/07/27 03:20:32;;;;;;;11.17;6.67;;;16.30;99.90;;;;;;5051607;28;20386;-56
2021/07/27 03:22:58;;;;;;;12.70;7.22;;;16.30;99.90;;;;;;5051713;28;20462;-56
2021/07/27 03:25:25;;;;;;;13.55;7.22;;;16.30;99.90;;;;;;5051282;28;20914;-57
2021/07/27 03:27:52;;;;;;;14.98;7.10;;;16.40;99.90;;;;;;5052108;28;20380;-57
2021/07/27 03:30:19;;;;;;;12.45;7.03;;;16.40;99.90;;;;;;5051678;28;21323;-57
2021/07/27 03:32:46;;;;;;;12.50;7.28;;;16.50;99.90;;;;;;5050831;28;20480;-57
2021/07/27 03:35:13;;;;;;;12.87;6.47;;;16.40;99.90;;;;;;5052081;28;20492;-57
2021/07/27 03:37:38;;;;;;;13.20;6.22;;;16.50;99.90;;;;;;5050869;28;20716;-57
2021/07/27 03:40:05;;;;;;;13.40;6.77;;;16.60;99.90;;;;;;5052801;28;20389;-57
2021/07/27 03:42:30;;;;;;;14.93;7.78;;;16.60;99.90;;;;;;5071018;28;20380;-57
2021/07/27 03:44:57;;;;;;;14.77;7.17;;;16.70;99.90;;;;;;5071806;28;20389;-57
2021/07/27 03:47:23;;;;;;;14.20;7.60;;;16.70;99.90;;;;;;5071368;28;20404;-57
2021/07/27 03:49:49;;;;;;;13.13;7.43;;;16.80;99.90;;;;;;5071471;28;20405;-57
2021/07/27 03:52:14;;;;;;;12.40;7.05;;;16.80;99.90;;;;;;5071315;28;20728;-57
2021/07/27 03:54:40;;;;;;;16.70;8.00;;;16.90;99.90;;;;;;5070239;28;20465;-57
2021/07/27 03:57:06;;;;;;;13.18;6.90;;;17.00;99.90;;;;;;5071540;28;20765;-57
2021/07/27 03:59:33;;;;;;;13.10;6.97;;;17.00;99.90;;;;;;5070225;28;20416;-57
2021/07/27 04:01:59;;;;;;;18.95;7.97;;;17.00;99.90;;;;;;5071229;28;20384;-57
2021/07/27 04:04:26;;;;;;;16.95;8.10;;;17.00;99.90;;;;;;5069461;28;20753;-57
2021/07/27 04:06:52;;;;;;;14.65;7.72;;;16.90;99.90;;;;;;5071290;28;20841;-57
2021/07/27 04:09:17;;;;;;;15.13;8.30;;;16.90;99.90;;;;;;5051344;28;20381;-56
2021/07/27 04:11:43;;;;;;;15.35;7.70;;;16.90;99.90;;;;;;5061193;28;20382;-57
2021/07/27 04:14:10;;;;;;;14.90;7.50;;;16.80;99.90;;;;;;5051017;28;20413;-57
2021/07/27 04:16:40;;;;;;;10.57;7.17;;;16.80;99.90;;;;;;5031746;28;20402;-57
2021/07/27 04:19:06;;;;;;;14.18;7.20;;;16.80;99.90;;;;;;5031769;28;20849;-57
2021/07/27 04:21:33;;;;;;;14.70;8.02;;;16.80;99.90;;;;;;5029830;28;20416;-57
2021/07/27 04:23:59;;;;;;;17.95;7.68;;;16.90;99.90;;;;;;5030522;28;20506;-57
2021/07/27 04:26:27;;;;;;;13.98;7.93;;;16.90;99.90;;;;;;5029281;28;20388;-57
2021/07/27 04:28:53;;;;;;;11.50;7.60;;;17.00;99.90;;;;;;5031015;28;20435;-57
2021/07/27 04:31:19;;;;;;;15.83;8.23;;;16.90;99.90;;;;;;5030609;28;20435;-57
2021/07/27 04:33:45;;;;;;;13.10;7.85;;;16.90;99.90;;;;;;5029976;28;20478;-57
2021/07/27 04:36:11;;;;;;;13.63;7.40;;;17.00;99.90;;;;;;5043430;28;20398;-57
2021/07/27 04:38:36;;;;;;;14.43;6.78;;;17.10;99.90;;;;;;5036378;28;20460;-57
2021/07/27 04:41:06;;;;;;;15.57;7.27;;;17.20;99.90;;;;;;5030616;28;20403;-58
2021/07/27 04:43:33;;;;;;;15.68;7.55;;;17.20;99.90;;;;;;5029344;28;20457;-57
2021/07/27 04:46:00;;;;;;;12.55;6.70;;;17.30;99.90;;;;;;5030613;28;20407;-57
2021/07/27 04:48:25;;;;;;;13.50;7.30;;;17.30;99.90;;;;;;5030254;28;20403;-56
2021/07/27 04:50:51;;;;;;;17.20;7.40;;;17.40;99.90;;;;;;5030439;28;20952;-57
2021/07/27 04:53:24;;;;;;;13.57;7.40;;;17.50;99.90;;;;;;5029789;28;20475;-57
2021/07/27 04:55:50;;;;;;;13.07;7.13;;;17.70;99.90;;;;;;5030296;28;20438;-57
2021/07/27 04:58:16;;;;;;;12.70;6.95;;;17.70;99.90;;;;;;5029354;28;20482;-57
2021/07/27 05:00:42;;;;;;;15.23;6.88;;;17.70;99.90;;;;;;5028507;28;20473;-57
2021/07/27 05:03:07;;;;;;;13.15;7.40;;;17.80;99.90;;;;;;5029987;28;20403;-57
2021/07/27 05:05:33;;;;;;;16.70;7.60;;;18.00;99.90;;;;;;5038879;28;20403;-55
2021/07/27 05:07:59;;;;;;;11.45;6.40;;;18.50;99.90;;;;;;5036120;28;20406;-55
2021/07/27 05:10:25;;;;;;;12.50;6.60;;;19.10;99.90;;;;;;5029029;28;20395;-55
2021/07/27 05:12:51;;;;;;;10.25;5.53;;;20.00;99.90;;;;;;5034637;28;20733;-58
2021/07/27 05:15:17;;;;;;;9.07;5.30;;;21.00;99.90;;;;;;5029318;28;20403;-57
2021/07/27 05:17:43;;;;;;;9.90;5.20;;;22.00;99.90;;;;;;5029171;28;20431;-57
2021/07/27 05:20:09;;;;;;;12.20;4.43;;;23.10;99.90;;;;;;5029632;28;20469;-58
2021/07/27 05:22:35;;;;;;;11.45;5.30;;;24.40;99.90;;;;;;5037886;28;20462;-56
2021/07/27 05:25:02;;;;;;;12.20;5.50;;;25.10;99.90;;;;;;5033999;28;20489;-56
2021/07/27 05:27:28;;;;;;;14.25;5.60;;;25.70;99.90;;;;;;5047444;28;20412;-56
2021/07/27 05:29:56;;;;;;;10.70;5.10;;;26.10;99.90;;;;;;5035819;28;20399;-56
2021/07/27 05:32:23;;;;;;;11.10;5.17;;;26.10;99.90;;;;;;5040951;28;20511;-58
2021/07/27 05:34:49;;;;;;;11.10;6.18;;;26.20;99.90;;;;;;5037816;28;20901;-58
2021/07/27 05:37:15;;;;;;;13.18;5.70;;;26.10;99.90;;;;;;5029229;28;20395;-59
2021/07/27 05:39:41;;;;;;;11.95;5.47;;;26.40;99.90;;;;;;5028971;28;20399;-58
2021/07/27 05:42:07;;;;;;;10.45;5.53;;;27.00;99.90;;;;;;5029800;28;20426;-58
2021/07/27 05:44:33;;;;;;;10.43;5.43;;;27.80;99.90;;;;;;5046059;28;20404;-58
2021/07/27 05:47:01;;;;;;;13.25;6.22;;;28.40;99.90;;;;;;5049251;28;20401;-59
2021/07/27 05:49:28;;;;;;;9.38;5.40;;;28.30;99.90;;;;;;5046133;28;20550;-58
2021/07/27 05:51:54;;;;;;;10.82;5.25;;;28.00;99.90;;;;;;5046877;28;20398;-59
2021/07/27 05:54:20;;;;;;;11.20;5.80;;;28.10;99.90;;;;;;5059610;28;20983;-58
2021/07/27 05:56:49;;;;;;;11.68;7.03;;;28.30;99.90;;;;;;5064956;28;20976;-57
2021/07/27 05:59:16;;;;;;;13.82;7.90;;;29.30;99.90;;;;;;5065346;28;20393;-57
2021/07/27 06:01:42;;;;;;;10.35;9.00;;;30.10;99.90;;;;;;5048096;28;20435;-56
2021/07/27 06:04:11;;;;;;;11.17;6.00;;;30.20;99.90;;;;;;5049215;28;20859;-56
2021/07/27 06:06:36;;;;;;;13.70;5.67;;;29.80;99.90;;;;;;5048011;28;20385;-56
2021/07/27 06:09:06;;;;;;;9.80;5.00;;;29.40;99.90;;;;;;5048450;28;20385;-56
2021/07/27 06:11:32;;;;;;;9.40;4.60;;;29.60;99.90;;;;;;5048350;28;20378;-56
2021/07/27 06:13:58;;;;;;;10.98;5.40;;;29.50;99.90;;;;;;5047540;28;20871;-57
2021/07/27 06:16:24;;;;;;;9.30;5.37;;;29.50;99.90;;;;;;5048226;28;20417;-57
2021/07/27 06:18:49;;;;;;;10.07;5.13;;;29.60;99.90;;;;;;5067856;28;20714;-58
2021/07/27 06:21:15;;;;;;;9.70;6.55;;;29.70;99.90;;;;;;5068593;28;20383;-57
2021/07/27 06:23:41;;;;;;;8.98;6.50;;;29.00;99.90;;;;;;5068154;28;20406;-57
2021/07/27 06:26:07;;;;;;;9.68;6.20;;;28.80;99.90;;;;;;5055078;28;20393;-58
2021/07/27 06:28:34;;;;;;;9.50;6.00;;;28.20;99.90;;;;;;5048092;28;21116;-57
2021/07/27 06:31:12;;;;;;;9.30;5.85;;;27.80;99.90;;;;;;5048359;28;20388;-57
2021/07/27 06:33:45;;;;;;;10.05;6.05;;;27.40;99.90;;;;;;5048118;28;20459;-57
2021/07/27 06:36:11;;;;;;;11.10;5.88;;;26.90;99.90;;;;;;5049959;28;20377;-58
2021/07/27 06:38:38;;;;;;;11.95;6.43;;;26.10;99.90;;;;;;5051727;28;20381;-57
2021/07/27 06:41:09;;;;;;;10.80;5.90;;;25.80;99.90;;;;;;5051912;28;20468;-58
2021/07/27 06:43:35;;;;;;;13.07;6.03;;;25.00;99.90;;;;;;5051899;28;20396;-58
2021/07/27 06:46:01;;;;;;;11.88;6.07;;;24.60;99.90;;;;;;5050954;28;20413;-58
2021/07/27 06:48:27;;;;;;;9.75;5.40;;;24.30;99.90;;;;;;5051486;28;20949;-58
2021/07/27 06:50:53;;;;;;;10.30;5.03;;;24.10;99.90;;;;;;5052166;28;20381;-58
2021/07/27 06:53:19;;;;;;;10.50;5.50;;;25.20;99.90;;;;;;5051810;28;20725;-58
2021/07/27 06:55:46;;;;;;;9.10;5.25;;;25.80;99.90;;;;;;5050970;28;20393;-58
2021/07/27 06:58:11;;;;;;;11.65;4.97;;;26.10;99.90;;;;;;5052170;28;20492;-57
2021/07/27 07:00:41;;;;;;;11.50;5.38;;;26.80;99.90;;;;;;5051213;28;20879;-58
2021/07/27 07:03:07;;;;;;;9.15;5.45;;;26.90;99.90;;;;;;5052321;28;20852;-57
2021/07/27 07:05:33;;;;;;;10.93;5.13;;;27.20;99.90;;;;;;5051338;28;20431;-57
2021/07/27 07:07:58;;;;;;;10.00;5.80;;;28.00;99.90;;;;;;5051311;28;20393;-58
2021/07/27 07:10:24;;;;;;;10.80;5.80;;;28.40;99.90;;;;;;5051870;28;20882;-58
2021/07/27 07:12:50;;;;;;;12.77;5.80;;;28.50;99.90;;;;;;5050628;28;20394;-58
2021/07/27 07:15:15;;;;;;;9.40;6.00;;;27.80;99.90;;;;;;5051699;28;20879;-57
2021/07/27 07:17:41;;;;;;;9.00;5.47;;;27.00;99.90;;;;;;5051005;28;20844;-57
2021/07/27 07:20:07;;;;;;;11.37;4.90;;;27.50;99.90;;;;;;5051734;28;20381;-57
2021/07/27 07:22:33;;;;;;;9.00;5.53;;;28.10;99.90;;;;;;5050379;28;20401;-57
2021/07/27 07:24:59;;;;;;;10.70;5.32;;;29.20;99.90;;;;;;5051467;28;20377;-58
2021/07/27 07:27:24;;;;;;;9.48;5.25;;;30.60;99.90;;;;;;5051515;28;20882;-57
2021/07/27 07:29:54;;;;;;;7.63;4.77;;;30.80;98.90;;;;;;5050270;28;20843;-57
2021/07/27 07:32:20;;;;;;;11.00;6.20;;;30.10;98.20;;;;;;5051641;28;20459;-58
2021/07/27 07:34:46;;;;;;;10.65;5.70;;;29.00;99.90;;;;;;5050379;28;20413;-58
2021/07/27 07:37:12;;;;;;;8.27;4.60;;;27.40;99.90;;;;;;5049971;28;20393;-58
2021/07/27 07:39:38;;;;;;;9.10;5.17;;;27.50;99.90;;;;;;5050448;28;20795;-57
2021/07/27 07:42:04;;;;;;;9.80;5.50;;;28.20;99.90;;;;;;5051533;28;20438;-58
2021/07/27 07:44:30;;;;;;;10.30;5.47;;;29.70;99.80;;;;;;5050654;28;20381;-58
2021/07/27 07:46:56;;;;;;;10.23;6.45;;;30.80;97.10;;;;;;5049469;28;20397;-61
2021/07/27 07:49:21;;;;;;;11.57;7.13;;;31.80;95.50;;;;;;5049904;28;20435;-58
2021/07/27 07:51:48;;;;;;;10.53;7.80;;;31.70;91.50;;;;;;5050539;28;21015;-58
2021/07/27 07:54:14;;;;;;;8.05;4.70;;;31.50;91.60;;;;;;5050502;28;20425;-58
2021/07/27 07:56:41;;;;;;;10.47;8.97;;;32.00;90.40;;;;;;5050271;28;20378;-58
2021/07/27 07:59:07;;;;;;;10.27;6.78;;;32.70;87.20;;;;;;5050966;28;20750;-58
2021/07/27 08:01:33;;;;;;;8.55;7.43;;;33.10;80.80;;;;;;5050089;28;20370;-58
2021/07/27 08:03:58;;;;;;;10.60;9.50;;;34.00;73.60;;;;;;5050902;28;20381;-58
2021/07/27 08:06:25;;;;;;;8.93;6.17;;;35.00;73.70;;;;;;5050470;28;20378;-58
2021/07/27 08:08:51;;;;;;;7.75;4.57;;;34.40;65.80;;;;;;5050065;28;20385;-58
2021/07/27 08:11:16;;;;;;;9.03;5.53;;;34.50;67.90;;;;;;5050976;28;20435;-58
2021/07/27 08:13:42;;;;;;;7.80;5.00;;;34.30;65.50;;;;;;5050034;28;20413;-58
2021/07/27 08:16:10;;;;;;;8.45;5.05;;;33.40;66.90;;;;;;5050557;28;20912;-58
2021/07/27 08:18:37;;;;;;;11.20;8.35;;;32.10;70.20;;;;;;5049936;28;20762;-58
2021/07/27 08:21:03;;;;;;;11.07;9.90;;;31.70;70.30;;;;;;5050658;28;20424;-58
2021/07/27 08:23:28;;;;;;;11.30;10.20;;;31.00;72.60;;;;;;5050313;28;20401;-58
2021/07/27 08:25:54;;;;;;;9.07;4.90;;;30.60;76.60;;;;;;5050005;28;20373;-58
2021/07/27 08:28:20;;;;;;;8.37;4.87;;;30.70;77.90;;;;;;5050871;28;20377;-58
2021/07/27 08:30:45;;;;;;;8.80;4.60;;;31.60;75.70;;;;;;5049687;28;20381;-58
2021/07/27 08:33:11;;;;;;;8.10;4.40;;;31.40;74.40;;;;;;5050515;28;20405;-58
2021/07/27 08:35:37;;;;;;;9.07;4.63;;;31.30;74.40;;;;;;5049674;28;20409;-58
2021/07/27 08:38:02;;;;;;;10.07;4.70;;;31.90;74.80;;;;;;5050434;28;20434;-58
2021/07/27 08:40:34;;;;;;;8.40;4.70;;;32.50;75.00;;;;;;5049669;28;20374;-58
2021/07/27 08:43:01;;;;;;;7.80;4.40;;;32.60;73.60;;;;;;5049934;28;20419;-58
2021/07/27 08:45:27;;;;;;;9.82;5.20;;;32.70;73.90;;;;;;5049844;28;20394;-58
2021/07/27 08:47:53;;;;;;;8.90;4.90;;;32.40;72.70;;;;;;5049557;28;20397;-58
2021/07/27 08:50:18;;;;;;;8.40;4.70;;;32.50;73.60;;;;;;5050044;28;20369;-58
2021/07/27 08:52:44;;;;;;;8.40;5.00;;;33.20;70.70;;;;;;5048849;28;21110;-58
2021/07/27 08:55:11;;;;;;;10.00;5.00;;;33.20;71.70;;;;;;5050006;28;20417;-58
2021/07/27 08:57:57;;;;;;;9.07;5.05;;;33.30;70.70;;;;;;5047394;28;20393;-58
2021/07/27 09:00:24;;;;;;;8.45;5.55;;;33.50;70.40;;;;;;5049500;28;20390;-58
2021/07/27 09:02:50;;;;;;;10.40;5.30;;;34.20;67.40;;;;;;5049296;28;20490;-58
2021/07/27 09:05:16;;;;;;;9.75;5.25;;;34.30;68.50;;;;;;5049983;28;20486;-58
2021/07/27 09:07:42;;;;;;;9.35;5.80;;;33.70;68.30;;;;;;5048922;28;20843;-58
2021/07/27 09:10:25;;;;;;;9.55;5.82;;;33.50;70.00;;;;;;5049356;28;20779;-59
2021/07/27 09:13:00;;;;;;;8.85;5.20;;;33.40;69.10;;;;;;5049529;28;20373;-59
2021/07/27 09:15:28;;;;;;;8.40;5.23;;;34.00;69.20;;;;;;5049863;28;20448;-59
2021/07/27 09:17:58;;;;;;;10.02;5.25;;;33.80;68.90;;;;;;5048969;28;20385;-60
2021/07/27 09:20:29;;;;;;;9.10;5.50;;;34.70;67.50;;;;;;5049377;28;20378;-57
2021/07/27 09:22:54;;;;;;;9.00;6.40;;;35.60;63.00;;;;;;5048359;28;20397;-57
2021/07/27 09:25:27;;;;;;;11.45;10.15;;;36.20;60.50;;;;;;5049315;28;20408;-59
2021/07/27 09:28:09;;;;;;;10.77;6.30;;;38.50;57.60;;;;;;5048727;28;20385;-58
2021/07/27 09:30:37;;;;;;;9.50;7.20;;;38.10;57.80;;;;;;5049026;28;20883;-59
2021/07/27 09:33:08;;;;;;;8.05;5.20;;;37.70;58.20;;;;;;5049150;28;20427;-58
2021/07/27 09:35:34;;;;;;;10.75;9.65;;;36.30;57.70;;;;;;5048527;28;20407;-58
2021/07/27 09:38:17;;;;;;;10.68;9.57;;;34.20;59.10;;;;;;5048958;28;20390;-58
2021/07/27 09:40:49;;;;;;;11.57;10.48;;;32.80;64.90;;;;;;5047985;28;20378;-58
2021/07/27 09:43:17;;;;;;;12.73;11.50;;;32.90;62.70;;;;;;5049667;28;20384;-58
2021/07/27 09:45:46;;;;;;;11.20;10.00;;;33.90;62.30;;;;;;5048467;28;20432;-58
2021/07/27 09:48:14;;;;;;;11.05;9.20;;;34.40;64.20;;;;;;5049013;28;20457;-58
2021/07/27 09:50:40;;;;;;;9.80;8.80;;;35.60;60.10;;;;;;5048090;28;20378;-58
2021/07/27 09:53:06;;;;;;;9.85;8.85;;;35.70;57.80;;;;;;5048422;28;20424;-58
2021/07/27 09:55:32;;;;;;;11.38;9.70;;;36.00;56.00;;;;;;5048509;28;20874;-58
2021/07/27 09:58:00;;;;;;;11.82;10.63;;;34.90;58.70;;;;;;5048815;28;20424;-58
2021/07/27 10:00:26;;;;;;;11.48;10.38;;;34.30;59.00;;;;;;5048518;28;20394;-58
2021/07/27 10:02:52;;;;;;;14.10;12.70;;;33.40;60.10;;;;;;5048258;28;20378;-58
2021/07/27 10:05:26;;;;;;;12.57;11.27;;;33.20;60.40;;;;;;5048909;28;20386;-58
2021/07/27 10:07:59;;;;;;;11.25;10.05;;;33.30;61.70;;;;;;5047391;28;20589;-58
2021/07/27 10:10:39;;;;;;;11.65;9.95;;;34.30;59.50;;;;;;5049210;28;20509;-58
2021/07/27 10:13:13;;;;;;;10.63;9.52;;;35.80;56.40;;;;;;5052822;28;20392;-58
2021/07/27 10:15:44;;;;;;;11.23;9.35;;;35.50;55.40;;;;;;5052346;28;20384;-58
2021/07/27 10:18:10;;;;;;;11.32;8.93;;;34.60;57.70;;;;;;5052853;28;20381;-58
2021/07/27 10:20:36;;;;;;;11.23;9.48;;;34.70;58.40;;;;;;5051744;28;20737;-58
2021/07/27 10:23:19;;;;;;;11.10;9.25;;;34.50;57.40;;;;;;5052859;28;20397;-58
2021/07/27 10:25:58;;;;;;;11.15;9.95;;;34.10;56.20;;;;;;5052125;28;20432;-58
2021/07/27 10:28:30;;;;;;;11.00;9.40;;;33.40;59.00;;;;;;5052836;28;20377;-58
2021/07/27 10:31:03;;;;;;;11.68;9.20;;;34.10;59.60;;;;;;5050423;28;20480;-61
2021/07/27 10:33:30;;;;;;;10.43;9.43;;;34.50;57.30;;;;;;5052406;28;20404;-58
2021/07/27 10:35:55;;;;;;;9.83;8.60;;;35.00;57.90;;;;;;5051948;28;20383;-58
2021/07/27 10:38:21;;;;;;;11.20;8.40;;;35.00;56.90;;;;;;5052179;28;20381;-58
2021/07/27 10:40:48;;;;;;;10.40;8.60;;;34.90;56.90;;;;;;5051195;28;20473;-58
2021/07/27 10:43:26;;;;;;;10.98;9.02;;;34.50;59.60;;;;;;5052058;28;20425;-58
2021/07/27 10:46:01;;;;;;;11.25;9.45;;;33.30;59.80;;;;;;5051804;28;20866;-58
2021/07/27 10:48:34;;;;;;;12.87;10.23;;;32.70;62.50;;;;;;5052233;28;20468;-58
2021/07/27 10:51:00;;;;;;;12.02;10.73;;;32.40;65.00;;;;;;5052327;28;20389;-59
2021/07/27 10:53:31;;;;;;;12.40;9.90;;;32.20;62.10;;;;;;5051410;28;20507;-58
2021/07/27 10:56:10;;;;;;;14.73;10.32;;;32.20;62.80;;;;;;5051923;28;20393;-58
2021/07/27 10:58:36;;;;;;;12.27;10.50;;;32.00;62.90;;;;;;5050121;28;20377;-59
2021/07/27 11:01:11;;;;;;;11.40;10.20;;;31.50;65.50;;;;;;5050618;28;20397;-58
2021/07/27 11:03:40;;;;;;;10.93;9.70;;;31.20;63.90;;;;;;5048384;28;20923;-58
2021/07/27 11:06:06;;;;;;;11.65;10.45;;;30.50;66.60;;;;;;5051942;28;20457;-58
2021/07/27 11:08:32;;;;;;;10.63;9.53;;;30.30;69.00;;;;;;5051906;28;20374;-57
2021/07/27 11:11:08;;;;;;;13.10;11.00;;;30.50;68.90;;;;;;5051400;28;20392;-58
2021/07/27 11:13:35;;;;;;;11.68;10.48;;;30.70;68.60;;;;;;5051125;28;20413;-58
2021/07/27 11:16:01;;;;;;;11.00;8.63;;;30.70;65.70;;;;;;5051927;28;20396;-58
2021/07/27 11:18:28;;;;;;;10.83;9.73;;;30.80;69.30;;;;;;5051853;28;20389;-57
2021/07/27 11:20:55;;;;;;;11.50;7.97;;;30.80;66.10;;;;;;5050998;28;20392;-57
2021/07/27 11:23:22;;;;;;;10.32;7.10;;;30.70;68.40;;;;;;5049348;28;20486;-58
2021/07/27 11:25:58;;;;;;;11.80;7.80;;;31.00;68.20;;;;;;5044955;28;20409;-58
2021/07/27 11:28:37;;;;;;;10.00;7.63;;;30.60;69.10;;;;;;5042936;28;20746;-58
2021/07/27 11:31:15;;;;;;;12.02;10.05;;;29.90;70.80;;;;;;5048181;28;20428;-58
2021/07/27 11:33:50;;;;;;;11.15;8.77;;;30.00;68.40;;;;;;5041345;28;20423;-58
2021/07/27 11:36:26;;;;;;;11.38;9.18;;;29.80;65.80;;;;;;5048821;28;20391;-59
2021/07/27 11:39:03;;;;;;;10.40;9.40;;;29.60;64.50;;;;;;5048343;28;20393;-58
2021/07/27 11:41:28;;;;;;;10.80;9.70;;;29.40;64.90;;;;;;5051625;28;20404;-58
2021/07/27 11:43:56;;;;;;;10.50;9.50;;;29.40;67.40;;;;;;5049153;28;20444;-59
2021/07/27 11:46:30;;;;;;;11.43;9.80;;;29.50;66.10;;;;;;5052060;28;20480;-59
2021/07/27 11:48:56;;;;;;;11.40;9.90;;;29.30;66.30;;;;;;5049868;28;20473;-58
2021/07/27 11:51:32;;;;;;;11.40;9.70;;;29.20;69.40;;;;;;5049867;28;20464;-59
2021/07/27 11:53:58;;;;;;;10.85;8.88;;;29.20;72.40;;;;;;5050292;28;21034;-57
2021/07/27 11:56:24;;;;;;;10.03;7.80;;;29.10;70.70;;;;;;5049048;28;20388;-60
2021/07/27 11:58:59;;;;;;;12.90;6.90;;;29.10;70.80;;;;;;5082100;28;20393;-59
2021/07/27 12:01:39;;;;;;;10.27;6.10;;;29.10;71.10;;;;;;5050221;28;20386;-59
2021/07/27 12:04:04;;;;;;;7.95;4.63;;;29.20;70.70;;;;;;5038228;28;20415;-59
2021/07/27 12:06:31;;;;;;;8.90;4.70;;;29.10;67.70;;;;;;5054553;28;20475;-60
2021/07/27 12:09:02;;;;;;;10.60;5.40;;;29.10;68.60;;;;;;5055533;28;20387;-64
2021/07/27 12:11:28;;;;;;;8.73;5.07;;;29.20;68.80;;;;;;5056337;28;20409;-62
2021/07/27 12:13:53;;;;;;;9.50;4.57;;;29.10;70.10;;;;;;5058694;28;20405;-59
2021/07/27 12:16:19;;;;;;;9.50;5.60;;;29.60;71.10;;;;;;5035693;28;20867;-58
2021/07/27 12:18:45;;;;;;;9.73;5.40;;;30.00;70.90;;;;;;5048834;28;20416;-57
2021/07/27 12:21:10;;;;;;;8.83;5.10;;;30.30;71.50;;;;;;5032163;28;20403;-57
2021/07/27 12:23:36;;;;;;;9.07;5.23;;;30.40;68.90;;;;;;5037724;28;20466;-60
2021/07/27 12:26:05;;;;;;;8.52;4.80;;;30.30;68.40;;;;;;5047329;28;20382;-58
2021/07/27 12:28:31;;;;;;;9.40;5.60;;;30.00;69.20;;;;;;5038199;28;20385;-57
2021/07/27 12:30:57;;;;;;;8.70;5.10;;;30.10;71.30;;;;;;5038030;28;20403;-58
2021/07/27 12:33:23;;;;;;;9.02;4.53;;;30.30;68.50;;;;;;5035741;28;20399;-59
2021/07/27 12:35:49;;;;;;;10.20;5.10;;;30.20;63.40;;;;;;5043458;28;20385;-59
2021/07/27 12:38:14;;;;;;;9.52;5.13;;;30.00;65.60;;;;;;5034889;28;20399;-60
2021/07/27 12:40:40;;;;;;;8.07;4.30;;;30.20;68.70;;;;;;5034179;28;20905;-58
2021/07/27 12:43:06;;;;;;;10.55;4.80;;;30.30;65.70;;;;;;5046815;28;20748;-58
2021/07/27 12:45:33;;;;;;;8.68;4.45;;;30.00;65.70;;;;;;5037744;28;20413;-58
2021/07/27 12:47:59;;;;;;;8.50;4.57;;;29.60;66.60;;;;;;5038484;28;20502;-58
2021/07/27 12:50:25;;;;;;;8.48;4.80;;;29.50;66.60;;;;;;5045724;28;20396;-59
2021/07/27 12:52:51;;;;;;;9.05;4.10;;;29.70;67.10;;;;;;5030550;28;20431;-59
2021/07/27 12:55:16;;;;;;;8.20;4.35;;;29.70;65.80;;;;;;5036785;28;20773;-58
2021/07/27 12:57:42;;;;;;;8.60;4.00;;;29.50;65.20;;;;;;5029110;28;20879;-60
2021/07/27 13:00:08;;;;;;;8.52;4.00;;;29.40;64.40;;;;;;5050669;28;20398;-58